Aviation Digital Data Service (ADDS)

Output produced by METARs form (0054 UTC 22 September 2017)
found at http://www.aviationweather.gov/adds/metars/
 
MYGF 212230Z 2200/2300 03006KT 9999 VCSH FEW015CB FEW016TCU SCT250 
     PROB30 
     TEMPO 2215/2218 06008G18KT 4800 TSRA SCT015CB BKN030
       
MYNN 212230Z 2200/2300 03004KT 9999 VCSH SCT016CB SCT035 
     BECMG 2212/2214 06008KT 
     PROB30 
     TEMPO 2216/2218 06008G18KT 8000 TSRA SCT015CB BKN035